Time;durP1;ratioP1;P1;durP2;ratioP2;P2;SDS_P1;SDS_P2;PMS_P1;PMS_P2;Temp;Humidity;BMP_temperature;BMP_pressure;BME280_temperature;BME280_humidity;BME280_pressure;Samples;Min_cycle;Max_cycle;Signal;HPM_P1;HPM_P2
2021/04/21 00:01:05;;;;;;;13.75;7.82;;;10.20;99.90;;;;;;5075202;28;20481;-64
2021/04/21 00:03:31;;;;;;;11.27;7.80;;;10.20;99.90;;;;;;5075241;28;20027;-64
2021/04/21 00:05:59;;;;;;;12.60;8.73;;;10.10;99.90;;;;;;5075267;28;20025;-63
2021/04/21 00:08:27;;;;;;;10.82;8.10;;;10.10;99.90;;;;;;5075169;28;20036;-64
2021/04/21 00:10:54;;;;;;;13.65;7.90;;;10.10;99.90;;;;;;5073866;28;20047;-65
2021/04/21 00:13:21;;;;;;;11.90;8.25;;;10.10;99.90;;;;;;5075277;28;20027;-65
2021/04/21 00:15:48;;;;;;;15.52;8.65;;;10.10;99.90;;;;;;5073551;28;20034;-65
2021/04/21 00:18:15;;;;;;;12.30;8.10;;;10.10;99.90;;;;;;5074564;28;20024;-63
2021/04/21 00:20:42;;;;;;;12.40;8.40;;;10.00;99.90;;;;;;5073279;28;20047;-64
2021/04/21 00:23:11;;;;;;;9.50;7.20;;;10.00;99.90;;;;;;5074455;28;20082;-64
2021/04/21 00:25:38;;;;;;;13.40;8.10;;;10.00;99.90;;;;;;5074499;28;20100;-64
2021/04/21 00:28:07;;;;;;;12.50;8.50;;;9.90;99.90;;;;;;5073176;28;20047;-64
2021/04/21 00:30:34;;;;;;;12.20;8.10;;;9.90;99.90;;;;;;5074480;28;20031;-63
2021/04/21 00:33:01;;;;;;;12.88;8.25;;;9.90;99.90;;;;;;5073149;28;20032;-65
2021/04/21 00:35:38;;;;;;;10.15;7.63;;;9.80;99.90;;;;;;5074614;28;20134;-65
2021/04/21 00:38:09;;;;;;;13.85;8.98;;;9.80;99.90;;;;;;5073123;28;20027;-65
2021/04/21 00:40:39;;;;;;;17.48;8.00;;;9.80;99.90;;;;;;5074443;28;20025;-65
2021/04/21 00:43:25;;;;;;;11.27;8.50;;;9.80;99.90;;;;;;5072980;28;20055;-66
2021/04/21 00:46:09;;;;;;;11.73;8.68;;;9.90;99.90;;;;;;5074629;28;20028;-67
2021/04/21 00:49:05;;;;;;;15.25;11.02;;;9.90;99.90;;;;;;5074254;28;20024;-65
2021/04/21 00:51:38;;;;;;;15.57;10.07;;;9.80;99.90;;;;;;5073293;28;20506;-64
2021/04/21 00:54:17;;;;;;;13.15;8.32;;;9.80;99.90;;;;;;5074228;28;20021;-65
2021/04/21 00:56:55;;;;;;;13.48;8.60;;;9.80;99.90;;;;;;5074054;28;20035;-65
2021/04/21 00:59:37;;;;;;;14.65;8.43;;;9.80;99.90;;;;;;5072742;28;20024;-65
2021/04/21 01:02:05;;;;;;;14.82;9.52;;;9.80;99.90;;;;;;5074456;28;20443;-65
2021/04/21 01:04:31;;;;;;;12.55;8.32;;;9.70;99.90;;;;;;5073771;28;20020;-64
2021/04/21 01:06:58;;;;;;;15.45;9.90;;;9.50;99.90;;;;;;5072771;28;20025;-65
2021/04/21 01:09:25;;;;;;;12.75;9.60;;;9.50;99.90;;;;;;5073621;28;20033;-65
2021/04/21 01:11:58;;;;;;;14.75;8.93;;;9.50;99.90;;;;;;5073796;28;20025;-64
2021/04/21 01:14:30;;;;;;;11.65;8.63;;;9.40;99.90;;;;;;5073794;28;20044;-65
2021/04/21 01:17:09;;;;;;;11.90;8.73;;;9.40;99.90;;;;;;5072186;28;20035;-65
2021/04/21 01:19:59;;;;;;;13.95;8.77;;;9.40;99.90;;;;;;5073778;28;20101;-63
2021/04/21 01:22:42;;;;;;;11.73;8.10;;;9.40;99.90;;;;;;5074448;28;20055;-64
2021/04/21 01:25:16;;;;;;;12.55;8.93;;;9.30;99.90;;;;;;5074016;28;20388;-64
2021/04/21 01:28:01;;;;;;;11.60;8.30;;;9.30;99.90;;;;;;5072217;28;20051;-65
2021/04/21 01:30:30;;;;;;;13.27;8.73;;;9.30;99.90;;;;;;5074110;28;20032;-64
2021/04/21 01:33:01;;;;;;;13.27;8.82;;;9.30;99.90;;;;;;5073388;28;20032;-64
2021/04/21 01:35:28;;;;;;;11.88;7.88;;;9.30;99.90;;;;;;5073603;28;20457;-64
2021/04/21 01:37:57;;;;;;;12.63;8.90;;;9.30;99.90;;;;;;5076239;28;20032;-64
2021/04/21 01:40:28;;;;;;;11.40;8.23;;;9.20;99.90;;;;;;5081593;28;20024;-65
2021/04/21 01:42:57;;;;;;;12.73;8.82;;;9.20;99.90;;;;;;5081666;28;20017;-65
2021/04/21 01:45:28;;;;;;;12.05;8.90;;;9.20;99.90;;;;;;5080475;28;20488;-64
2021/04/21 01:47:58;;;;;;;12.50;8.60;;;9.10;99.90;;;;;;5073153;28;20119;-64
2021/04/21 01:50:24;;;;;;;11.25;8.32;;;9.00;99.90;;;;;;5072501;28;20024;-64
2021/04/21 01:53:09;;;;;;;13.10;8.07;;;8.90;99.90;;;;;;5072263;28;20096;-63
2021/04/21 01:55:54;;;;;;;11.57;7.97;;;8.80;99.90;;;;;;5072446;28;20401;-66
2021/04/21 01:58:44;;;;;;;12.88;7.97;;;8.70;99.90;;;;;;5072250;28;20445;-65
2021/04/21 02:01:16;;;;;;;12.55;8.23;;;8.60;99.90;;;;;;5071101;28;20528;-66
2021/04/21 02:03:48;;;;;;;13.18;8.98;;;8.50;99.90;;;;;;5073136;28;20426;-66
2021/04/21 02:06:50;;;;;;;12.40;8.93;;;8.50;99.90;;;;;;5075169;28;20021;-66
2021/04/21 02:09:40;;;;;;;11.98;8.02;;;8.50;99.90;;;;;;5052392;28;20119;-66
2021/04/21 02:12:38;;;;;;;10.88;8.15;;;8.40;99.90;;;;;;5073289;28;20028;-65
2021/04/21 02:15:21;;;;;;;14.68;8.90;;;8.40;99.90;;;;;;5073444;28;20104;-65
2021/04/21 02:18:24;;;;;;;13.20;8.85;;;8.30;99.90;;;;;;5075045;28;20496;-66
2021/04/21 02:21:08;;;;;;;12.02;8.57;;;8.30;99.90;;;;;;5077402;28;20546;-66
2021/04/21 02:23:45;;;;;;;13.95;9.48;;;8.20;99.90;;;;;;5078284;28;20017;-64
2021/04/21 02:26:51;;;;;;;14.30;9.20;;;8.20;99.90;;;;;;5079332;28;20020;-66
2021/04/21 02:29:35;;;;;;;13.60;8.68;;;8.10;99.90;;;;;;5037384;28;20049;-66
2021/04/21 02:32:25;;;;;;;15.57;9.95;;;8.00;99.90;;;;;;5076118;28;20393;-66
2021/04/21 02:35:01;;;;;;;12.32;8.73;;;7.90;99.90;;;;;;5077796;28;20488;-66
2021/04/21 02:38:00;;;;;;;14.80;9.98;;;7.80;99.90;;;;;;5077631;28;20107;-66
2021/04/21 02:40:54;;;;;;;16.73;10.20;;;7.80;99.90;;;;;;5077588;28;20054;-66
2021/04/21 02:43:47;;;;;;;13.57;9.32;;;7.80;99.90;;;;;;5076781;28;20036;-66
2021/04/21 02:46:25;;;;;;;15.50;9.63;;;7.70;99.90;;;;;;5077274;28;20023;-64
2021/04/21 02:49:14;;;;;;;14.98;9.77;;;7.80;99.90;;;;;;5077338;28;20111;-65
2021/04/21 02:52:05;;;;;;;13.48;9.35;;;7.80;99.90;;;;;;5076913;28;20576;-65
2021/04/21 02:54:52;;;;;;;17.25;9.90;;;7.80;99.90;;;;;;5076164;28;20450;-65
2021/04/21 02:57:28;;;;;;;14.55;9.27;;;7.90;99.90;;;;;;5076437;28;20024;-65
2021/04/21 02:59:56;;;;;;;14.00;9.43;;;7.90;99.90;;;;;;5076139;28;20087;-64
2021/04/21 03:02:29;;;;;;;15.02;9.30;;;7.90;99.90;;;;;;5076551;28;20381;-64
2021/04/21 03:05:02;;;;;;;14.52;9.50;;;7.90;99.90;;;;;;5076116;28;20046;-67
2021/04/21 03:07:37;;;;;;;13.02;9.57;;;7.90;99.90;;;;;;5076260;28;20024;-65
2021/04/21 03:10:07;;;;;;;14.75;9.88;;;8.00;99.90;;;;;;5076053;28;20032;-65
2021/04/21 03:12:34;;;;;;;16.77;10.40;;;7.90;99.90;;;;;;5075866;28;20412;-64
2021/04/21 03:15:08;;;;;;;13.43;9.20;;;7.90;99.90;;;;;;5075695;28;20044;-65
2021/04/21 03:17:34;;;;;;;15.52;9.93;;;7.90;99.90;;;;;;5075862;28;20024;-65
2021/04/21 03:20:14;;;;;;;12.73;9.10;;;8.00;99.90;;;;;;5075707;28;20028;-64
2021/04/21 03:22:43;;;;;;;15.80;10.27;;;8.00;99.90;;;;;;5075878;28;20032;-65
2021/04/21 03:25:13;;;;;;;12.23;8.88;;;8.10;99.90;;;;;;5074229;28;20021;-63
2021/04/21 03:27:49;;;;;;;13.50;9.02;;;8.10;99.90;;;;;;5075951;28;20028;-64
2021/04/21 03:30:17;;;;;;;13.02;9.23;;;8.10;99.90;;;;;;5074405;28;20078;-64
2021/04/21 03:32:53;;;;;;;12.18;8.88;;;8.10;99.90;;;;;;5075831;28;20021;-64
2021/04/21 03:35:22;;;;;;;15.00;9.05;;;8.00;99.90;;;;;;5074295;28;20369;-67
2021/04/21 03:38:07;;;;;;;13.98;8.70;;;8.00;99.90;;;;;;5074094;28;20028;-65
2021/04/21 03:40:36;;;;;;;14.40;9.00;;;7.90;99.90;;;;;;5075458;28;20027;-65
2021/04/21 03:43:03;;;;;;;12.27;8.88;;;7.90;99.90;;;;;;5076134;28;20031;-65
2021/04/21 03:45:30;;;;;;;14.13;9.55;;;7.90;99.90;;;;;;5075598;28;20504;-66
2021/04/21 03:47:57;;;;;;;15.95;9.65;;;7.80;99.90;;;;;;5075280;28;20036;-66
2021/04/21 03:50:24;;;;;;;13.40;9.15;;;7.80;99.90;;;;;;5075282;28;20024;-66
2021/04/21 03:52:56;;;;;;;14.77;9.45;;;7.70;99.90;;;;;;5075247;28;20485;-66
2021/04/21 03:55:22;;;;;;;13.05;9.52;;;7.70;99.90;;;;;;5075293;28;20032;-66
2021/04/21 03:57:51;;;;;;;13.02;9.55;;;7.60;99.90;;;;;;5075330;28;20025;-65
2021/04/21 04:00:19;;;;;;;13.73;9.43;;;7.60;99.90;;;;;;5075141;28;20017;-65
2021/04/21 04:02:53;;;;;;;13.20;9.38;;;7.60;99.90;;;;;;5073922;28;20027;-65
2021/04/21 04:05:31;;;;;;;15.20;9.77;;;7.50;99.90;;;;;;5073413;28;20027;-65
2021/04/21 04:08:06;;;;;;;13.35;9.35;;;7.50;99.90;;;;;;5075093;28;20020;-65
2021/04/21 04:10:34;;;;;;;14.75;9.85;;;7.40;99.90;;;;;;5075306;28;20031;-66
2021/04/21 04:13:05;;;;;;;14.45;9.98;;;7.30;99.90;;;;;;5074855;28;20024;-66
2021/04/21 04:15:31;;;;;;;14.95;9.23;;;7.20;99.90;;;;;;5074890;28;20021;-66
2021/04/21 04:18:00;;;;;;;14.38;10.00;;;7.10;99.90;;;;;;5074713;28;20047;-66
2021/04/21 04:20:28;;;;;;;14.35;9.55;;;7.10;99.90;;;;;;5074757;28;20077;-65
2021/04/21 04:22:58;;;;;;;16.92;10.10;;;7.10;99.90;;;;;;5074884;28;20044;-65
2021/04/21 04:25:26;;;;;;;18.40;10.27;;;7.10;99.90;;;;;;5074782;28;20036;-66
2021/04/21 04:27:53;;;;;;;13.60;9.05;;;7.10;99.90;;;;;;5074917;28;20111;-65
2021/04/21 04:30:22;;;;;;;16.13;8.90;;;7.40;99.90;;;;;;5073449;28;20024;-66
2021/04/21 04:32:51;;;;;;;13.43;9.63;;;7.70;99.90;;;;;;5075508;28;20025;-65
2021/04/21 04:35:17;;;;;;;15.07;9.98;;;7.70;99.90;;;;;;5074379;28;20066;-66
2021/04/21 04:37:42;;;;;;;13.05;9.40;;;7.60;99.90;;;;;;5074555;28;20030;-66
2021/04/21 04:40:10;;;;;;;15.97;10.50;;;7.60;99.90;;;;;;5074168;28;20028;-66
2021/04/21 04:42:37;;;;;;;17.80;10.25;;;7.60;99.90;;;;;;5074475;28;20016;-64
2021/04/21 04:45:05;;;;;;;17.58;9.77;;;7.60;99.90;;;;;;5072781;28;20126;-66
2021/04/21 04:47:32;;;;;;;13.90;9.90;;;7.60;99.90;;;;;;5072869;28;20024;-65
2021/04/21 04:50:06;;;;;;;13.35;9.85;;;7.50;99.90;;;;;;5074425;28;20020;-64
2021/04/21 04:52:40;;;;;;;15.02;10.18;;;7.50;99.90;;;;;;5074171;28;20104;-66
2021/04/21 04:55:08;;;;;;;15.93;10.02;;;7.50;99.90;;;;;;5073981;28;20108;-65
2021/04/21 04:57:37;;;;;;;13.77;9.68;;;7.50;99.90;;;;;;5074813;28;20081;-66
2021/04/21 05:00:08;;;;;;;19.50;9.88;;;7.50;99.90;;;;;;5073319;28;20027;-66
2021/04/21 05:02:37;;;;;;;18.27;10.27;;;7.60;99.90;;;;;;5074779;28;20107;-66
2021/04/21 05:05:07;;;;;;;19.50;10.73;;;7.60;99.90;;;;;;5074029;28;20032;-68
2021/04/21 05:07:42;;;;;;;15.05;10.50;;;7.60;99.90;;;;;;5072450;28;20025;-69
2021/04/21 05:10:16;;;;;;;14.95;9.98;;;7.70;99.90;;;;;;5072542;28;20032;-67
2021/04/21 05:12:44;;;;;;;15.25;9.57;;;7.70;99.90;;;;;;5073999;28;20024;-67
2021/04/21 05:15:32;;;;;;;14.55;10.23;;;7.70;99.90;;;;;;5073937;28;20021;-68
2021/04/21 05:18:19;;;;;;;20.23;10.13;;;7.60;99.90;;;;;;5073619;28;20029;-68
2021/04/21 05:21:15;;;;;;;20.53;11.20;;;7.60;99.90;;;;;;5072987;28;20029;-65
2021/04/21 05:24:02;;;;;;;15.88;11.30;;;7.60;99.90;;;;;;5073250;28;20028;-63
2021/04/21 05:26:51;;;;;;;16.25;10.43;;;7.60;99.90;;;;;;5073932;28;20028;-67
2021/04/21 05:29:39;;;;;;;14.23;9.65;;;7.60;99.90;;;;;;5072948;28;20065;-67
2021/04/21 05:32:28;;;;;;;19.70;12.55;;;7.60;99.90;;;;;;5073357;28;20021;-66
2021/04/21 05:35:14;;;;;;;17.33;10.65;;;7.60;99.90;;;;;;5073139;28;20100;-67
2021/04/21 05:38:01;;;;;;;16.40;11.25;;;7.60;99.90;;;;;;5073879;28;20051;-68
2021/04/21 05:40:54;;;;;;;15.88;10.07;;;7.70;99.90;;;;;;5074014;28;20020;-67
2021/04/21 05:44:00;;;;;;;19.25;11.23;;;7.70;99.90;;;;;;5073137;28;20028;-69
2021/04/21 05:46:59;;;;;;;15.68;10.73;;;7.70;99.90;;;;;;5071769;28;20711;-68
2021/04/21 05:49:49;;;;;;;17.25;11.75;;;7.70;99.90;;;;;;5073408;28;20166;-69
2021/04/21 05:52:35;;;;;;;14.60;10.57;;;7.80;99.90;;;;;;5072903;28;20021;-69
2021/04/21 05:55:12;;;;;;;17.42;10.80;;;7.80;99.90;;;;;;5071772;28;20082;-69
2021/04/21 05:57:57;;;;;;;18.05;11.32;;;7.80;99.90;;;;;;5072279;28;20029;-70
2021/04/21 06:00:43;;;;;;;18.58;10.98;;;7.90;99.90;;;;;;5073338;28;20377;-67
2021/04/21 06:03:10;;;;;;;20.60;11.98;;;7.90;99.90;;;;;;5072826;28;20039;-68
2021/04/21 06:05:36;;;;;;;18.40;11.27;;;7.90;99.90;;;;;;5073136;28;20016;-68
2021/04/21 06:08:12;;;;;;;14.70;10.77;;;8.00;99.90;;;;;;5073079;28;20032;-68
2021/04/21 06:10:39;;;;;;;18.67;10.75;;;8.00;99.90;;;;;;5071532;28;20021;-68
2021/04/21 06:13:06;;;;;;;16.63;11.63;;;8.10;99.90;;;;;;5075702;28;20046;-69
2021/04/21 06:15:36;;;;;;;33.95;12.07;;;8.10;99.90;;;;;;5072139;28;20127;-70
2021/04/21 06:18:09;;;;;;;18.17;11.23;;;8.20;99.90;;;;;;5072810;28;20036;-70
2021/04/21 06:20:39;;;;;;;20.80;11.88;;;8.30;99.90;;;;;;5071575;28;20027;-68
2021/04/21 06:23:12;;;;;;;18.55;11.02;;;8.40;99.90;;;;;;5072987;28;20093;-69
2021/04/21 06:25:41;;;;;;;17.50;12.15;;;8.50;99.90;;;;;;5073003;28;20032;-68
2021/04/21 06:28:20;;;;;;;19.80;11.60;;;8.50;99.90;;;;;;5072944;28;20025;-69
2021/04/21 06:31:01;;;;;;;16.85;11.25;;;8.70;99.90;;;;;;5072685;28;20059;-69
2021/04/21 06:33:32;;;;;;;17.58;11.60;;;8.70;99.90;;;;;;5074389;28;20419;-70
2021/04/21 06:35:57;;;;;;;14.57;10.90;;;8.80;99.90;;;;;;5073898;28;20029;-71
2021/04/21 06:38:29;;;;;;;19.13;11.17;;;8.90;99.90;;;;;;5072259;28;20032;-67
2021/04/21 06:40:55;;;;;;;15.77;11.15;;;9.00;99.90;;;;;;5073223;28;20030;-70
2021/04/21 06:43:29;;;;;;;18.70;11.77;;;9.00;99.90;;;;;;5077225;28;20099;-69
2021/04/21 06:45:55;;;;;;;16.35;11.63;;;9.20;99.90;;;;;;5072419;28;20074;-66
2021/04/21 06:48:36;;;;;;;20.17;11.00;;;9.20;99.90;;;;;;5073130;28;20405;-68
2021/04/21 06:51:09;;;;;;;18.33;11.88;;;9.40;99.90;;;;;;5073489;28;20107;-67
2021/04/21 06:53:35;;;;;;;16.30;11.20;;;9.40;99.90;;;;;;5072820;28;20083;-67
2021/04/21 06:56:01;;;;;;;18.23;12.43;;;9.50;99.90;;;;;;5071631;28;20032;-67
2021/04/21 06:58:29;;;;;;;17.13;10.40;;;9.60;99.90;;;;;;5073467;28;20285;-69
2021/04/21 07:00:55;;;;;;;15.38;10.98;;;9.70;99.90;;;;;;5073583;28;20052;-68
2021/04/21 07:03:21;;;;;;;18.35;12.05;;;9.80;99.90;;;;;;5074070;28;20024;-68
2021/04/21 07:05:48;;;;;;;15.90;10.65;;;9.90;99.90;;;;;;5080577;28;20542;-68
2021/04/21 07:08:29;;;;;;;16.63;11.30;;;10.00;99.90;;;;;;5079205;28;20031;-66
2021/04/21 07:10:57;;;;;;;17.70;11.65;;;10.10;99.90;;;;;;5081326;28;20017;-68
2021/04/21 07:13:23;;;;;;;16.05;10.95;;;10.20;99.90;;;;;;5076460;28;20081;-67
2021/04/21 07:15:49;;;;;;;;;;;10.30;99.90;;;;;;5076694;28;20116;-66
2021/04/21 07:18:18;;;;;;;17.23;11.30;;;10.30;99.90;;;;;;5076569;28;19994;-68
2021/04/21 07:20:45;;;;;;;19.88;11.15;;;10.40;99.90;;;;;;5076542;28;20021;-68
2021/04/21 07:23:12;;;;;;;15.82;9.88;;;10.40;99.90;;;;;;5076524;28;20024;-67
2021/04/21 07:25:39;;;;;;;14.55;10.80;;;10.50;99.90;;;;;;5075431;28;20547;-68
2021/04/21 07:28:06;;;;;;;16.13;11.20;;;10.60;99.90;;;;;;5075990;28;20040;-68
2021/04/21 07:30:33;;;;;;;18.88;10.88;;;10.80;99.90;;;;;;5075918;28;20162;-68
2021/04/21 07:32:59;;;;;;;;;;;10.90;99.90;;;;;;5074777;28;20025;-68
2021/04/21 07:35:26;;;;;;;15.40;10.85;;;11.00;99.90;;;;;;5075496;28;19953;-69
2021/04/21 07:37:55;;;;;;;15.82;11.23;;;11.20;99.90;;;;;;5075791;28;20476;-70
2021/04/21 07:40:24;;;;;;;15.75;11.68;;;11.30;99.90;;;;;;5075548;28;20056;-69
2021/04/21 07:42:51;;;;;;;14.98;10.88;;;11.50;99.90;;;;;;5075768;28;20052;-69
2021/04/21 07:45:21;;;;;;;16.75;10.30;;;11.50;99.90;;;;;;5075420;28;20022;-68
2021/04/21 07:47:47;;;;;;;15.05;10.88;;;11.60;99.90;;;;;;5074251;28;20119;-69
2021/04/21 07:50:13;;;;;;;19.75;11.88;;;11.80;99.90;;;;;;5075543;28;20081;-67
2021/04/21 07:52:39;;;;;;;17.13;11.40;;;11.90;99.90;;;;;;5075810;28;20338;-69
2021/04/21 07:55:20;;;;;;;23.17;11.55;;;11.90;99.90;;;;;;5073916;28;20844;-68
2021/04/21 07:58:01;;;;;;;21.17;12.10;;;12.10;99.90;;;;;;5075553;28;20029;-67
2021/04/21 08:00:29;;;;;;;18.05;11.65;;;12.20;99.90;;;;;;5077772;28;20469;-68
2021/04/21 08:02:56;;;;;;;18.02;11.10;;;12.30;99.90;;;;;;5075768;28;20025;-70
2021/04/21 08:05:22;;;;;;;21.25;12.25;;;12.50;99.90;;;;;;5075509;28;20016;-69
2021/04/21 08:08:02;;;;;;;16.85;12.30;;;12.60;99.90;;;;;;5075569;28;20024;-68
2021/04/21 08:10:34;;;;;;;20.83;12.43;;;12.80;99.90;;;;;;5075100;28;20025;-67
2021/04/21 08:13:01;;;;;;;17.80;11.70;;;12.90;99.90;;;;;;5074998;28;20100;-67
2021/04/21 08:15:35;;;;;;;17.00;10.95;;;13.00;99.60;;;;;;5074343;28;20089;-66
2021/04/21 08:18:05;;;;;;;16.55;11.38;;;13.20;99.50;;;;;;5075166;28;20119;-69
2021/04/21 08:20:33;;;;;;;22.17;11.55;;;13.30;99.00;;;;;;5075027;28;20021;-68
2021/04/21 08:23:04;;;;;;;23.90;11.75;;;13.50;99.00;;;;;;5075113;28;20102;-69
2021/04/21 08:25:30;;;;;;;24.60;11.38;;;13.80;98.40;;;;;;5074733;28;20024;-68
2021/04/21 08:27:57;;;;;;;18.90;11.45;;;13.90;98.00;;;;;;5074685;28;20048;-67
2021/04/21 08:30:24;;;;;;;17.65;11.57;;;14.00;97.90;;;;;;5074704;28;20032;-68
2021/04/21 08:32:49;;;;;;;14.85;10.65;;;14.30;97.80;;;;;;5074869;28;20028;-65
2021/04/21 08:35:15;;;;;;;18.67;9.90;;;15.70;95.80;;;;;;5074071;28;20397;-67
2021/04/21 08:37:41;;;;;;;14.40;10.15;;;17.90;92.80;;;;;;5074588;28;20024;-67
2021/04/21 08:40:08;;;;;;;14.60;9.50;;;20.70;79.50;;;;;;5074515;28;20040;-69
2021/04/21 08:42:38;;;;;;;14.68;10.10;;;22.20;68.80;;;;;;5074370;28;20024;-68
2021/04/21 08:45:04;;;;;;;14.30;10.27;;;23.90;59.40;;;;;;5073648;28;20104;-68
2021/04/21 08:47:33;;;;;;;14.80;10.15;;;25.50;55.40;;;;;;5072546;28;20028;-67
2021/04/21 08:49:59;;;;;;;12.98;9.52;;;26.80;49.50;;;;;;5073692;28;20035;-68
2021/04/21 08:52:29;;;;;;;10.93;9.35;;;27.80;46.90;;;;;;5074814;28;20082;-67
2021/04/21 08:54:55;;;;;;;13.43;10.00;;;28.90;45.40;;;;;;5073799;28;20036;-68
2021/04/21 08:57:22;;;;;;;14.82;9.27;;;29.60;42.70;;;;;;5074116;28;20483;-68
2021/04/21 08:59:49;;;;;;;13.68;9.98;;;30.10;42.30;;;;;;5073718;28;20050;-67
2021/04/21 09:02:16;;;;;;;10.57;8.93;;;31.10;41.10;;;;;;5073579;28;20100;-66
2021/04/21 09:04:45;;;;;;;10.90;9.82;;;31.90;39.60;;;;;;5072296;28;20104;-68
2021/04/21 09:07:11;;;;;;;11.23;9.75;;;32.40;38.30;;;;;;5073840;28;20036;-65
2021/04/21 09:09:37;;;;;;;11.27;10.15;;;32.30;38.30;;;;;;5072352;28;20035;-68
2021/04/21 09:12:05;;;;;;;11.88;10.23;;;33.00;37.70;;;;;;5073706;28;20082;-70
2021/04/21 09:14:32;;;;;;;13.88;10.32;;;32.30;36.80;;;;;;5073259;28;20028;-68
2021/04/21 09:16:58;;;;;;;11.38;10.02;;;31.50;37.60;;;;;;5073388;28;20025;-68
2021/04/21 09:19:24;;;;;;;13.50;9.35;;;31.90;37.50;;;;;;5073397;28;20025;-67
2021/04/21 09:22:10;;;;;;;13.93;9.57;;;32.70;36.80;;;;;;5073256;28;20508;-68
2021/04/21 09:24:40;;;;;;;11.68;9.80;;;33.30;36.50;;;;;;5071898;28;20025;-68
2021/04/21 09:27:26;;;;;;;10.75;9.65;;;33.60;35.90;;;;;;5072623;28;20036;-67
2021/04/21 09:30:09;;;;;;;10.95;9.48;;;33.70;35.60;;;;;;5073040;28;20028;-68
2021/04/21 09:32:45;;;;;;;11.52;10.43;;;33.50;36.00;;;;;;5073353;28;20024;-67
2021/04/21 09:35:23;;;;;;;11.40;10.07;;;33.60;34.90;;;;;;5072254;28;20115;-69
2021/04/21 09:37:53;;;;;;;12.32;11.02;;;32.40;36.20;;;;;;5073239;28;20052;-69
2021/04/21 09:40:46;;;;;;;14.82;10.80;;;32.60;35.60;;;;;;5073281;28;20480;-68
2021/04/21 09:43:23;;;;;;;13.05;10.63;;;32.40;36.00;;;;;;5073437;28;20104;-68
2021/04/21 09:46:17;;;;;;;25.38;22.05;;;32.80;36.10;;;;;;5074808;28;20024;-70
2021/04/21 09:48:45;;;;;;;19.05;17.15;;;33.70;35.20;;;;;;5068736;28;20033;-69
2021/04/21 09:51:16;;;;;;;15.75;13.65;;;32.90;34.70;;;;;;5073107;28;20042;-68
2021/04/21 09:53:44;;;;;;;14.43;11.18;;;32.00;35.60;;;;;;5072625;28;20055;-69
2021/04/21 09:56:16;;;;;;;14.32;11.80;;;31.50;36.70;;;;;;5073044;28;20090;-68
2021/04/21 09:58:48;;;;;;;12.52;11.20;;;32.40;36.00;;;;;;5072914;28;20028;-67
2021/04/21 10:01:30;;;;;;;13.73;11.02;;;32.70;35.70;;;;;;5073101;28;20033;-68
2021/04/21 10:04:15;;;;;;;12.25;11.05;;;32.50;35.30;;;;;;5073286;28;20032;-68
2021/04/21 10:06:55;;;;;;;15.48;11.57;;;32.80;35.40;;;;;;5071383;28;20120;-68
2021/04/21 10:09:38;;;;;;;12.38;10.60;;;33.00;34.90;;;;;;5071553;28;20070;-68
2021/04/21 10:12:20;;;;;;;13.35;11.43;;;32.70;34.90;;;;;;5073740;28;20025;-70
2021/04/21 10:15:09;;;;;;;12.95;10.82;;;32.90;35.00;;;;;;5076156;28;20355;-69
2021/04/21 10:17:43;;;;;;;13.10;11.80;;;33.50;34.80;;;;;;5075449;28;20017;-69
2021/04/21 10:20:14;;;;;;;11.18;10.07;;;33.30;34.20;;;;;;5075450;28;20066;-67
2021/04/21 10:22:42;;;;;;;10.88;9.75;;;33.60;34.40;;;;;;5073940;28;20040;-68
2021/04/21 10:25:10;;;;;;;11.23;9.93;;;33.80;34.50;;;;;;5074242;28;20127;-68
2021/04/21 10:27:36;;;;;;;24.00;21.50;;;33.60;34.30;;;;;;5075087;28;20158;-68
2021/04/21 10:30:04;;;;;;;12.00;10.80;;;34.00;34.10;;;;;;5075374;28;20048;-69
2021/04/21 10:32:32;;;;;;;11.85;10.13;;;34.30;33.50;;;;;;5075916;28;20082;-69
2021/04/21 10:34:58;;;;;;;11.10;10.00;;;34.20;33.80;;;;;;5074825;28;20086;-70
2021/04/21 10:37:24;;;;;;;12.93;10.70;;;33.80;33.90;;;;;;5077133;28;20036;-70
2021/04/21 10:39:53;;;;;;;12.68;10.07;;;33.70;33.30;;;;;;5078010;28;20047;-69
2021/04/21 10:42:20;;;;;;;11.55;10.30;;;33.60;33.80;;;;;;5077448;28;20029;-69
2021/04/21 10:44:49;;;;;;;11.45;9.93;;;32.40;34.00;;;;;;5076952;28;20373;-69
2021/04/21 10:47:25;;;;;;;10.65;9.55;;;31.90;34.40;;;;;;5076694;28;20025;-70
2021/04/21 10:50:03;;;;;;;9.43;8.43;;;31.50;34.50;;;;;;5075371;28;20392;-70
2021/04/21 10:52:29;;;;;;;13.13;8.93;;;31.60;34.10;;;;;;5076565;28;20086;-70
2021/04/21 10:55:03;;;;;;;9.73;8.07;;;32.90;33.90;;;;;;5076331;28;20091;-68
2021/04/21 10:57:34;;;;;;;7.72;6.57;;;33.90;34.10;;;;;;5075021;28;20039;-68
2021/04/21 11:00:10;;;;;;;10.13;8.18;;;34.90;34.30;;;;;;5076096;28;20025;-67
2021/04/21 11:02:44;;;;;;;8.65;7.63;;;34.20;34.40;;;;;;5076383;28;20021;-68
2021/04/21 11:05:16;;;;;;;11.13;9.10;;;33.20;34.40;;;;;;5076159;28;20102;-69
2021/04/21 11:07:44;;;;;;;9.48;8.48;;;30.80;33.70;;;;;;5076290;28;20025;-70
2021/04/21 11:10:35;;;;;;;10.55;9.45;;;29.00;35.10;;;;;;5074941;28;20024;-70
2021/04/21 11:13:00;;;;;;;10.43;9.40;;;27.60;36.50;;;;;;5076846;28;20032;-69
2021/04/21 11:15:40;;;;;;;8.98;8.02;;;26.70;37.00;;;;;;5074873;28;20017;-69
2021/04/21 11:18:12;;;;;;;9.40;8.50;;;25.40;37.80;;;;;;5075052;28;20020;-68
2021/04/21 11:20:43;;;;;;;9.52;8.52;;;24.60;39.10;;;;;;5075889;28;20048;-68
2021/04/21 11:23:47;;;;;;;14.25;9.00;;;24.30;40.20;;;;;;5075592;28;20052;-68
2021/04/21 11:26:26;;;;;;;11.38;9.68;;;23.30;41.30;;;;;;5075667;28;20099;-70
2021/04/21 11:29:02;;;;;;;12.60;10.10;;;22.60;42.40;;;;;;5075536;28;20429;-68
2021/04/21 11:31:48;;;;;;;12.95;9.35;;;21.90;43.60;;;;;;5078810;28;20024;-69
2021/04/21 11:34:19;;;;;;;10.52;8.70;;;21.80;43.90;;;;;;5075505;28;20049;-69
2021/04/21 11:37:08;;;;;;;12.20;8.35;;;21.60;44.20;;;;;;5075525;28;20148;-67
2021/04/21 11:39:40;;;;;;;11.75;8.20;;;21.70;44.20;;;;;;5074283;28;20025;-69
2021/04/21 11:42:30;;;;;;;12.32;8.05;;;21.70;44.30;;;;;;5076134;28;20028;-68
2021/04/21 11:45:01;;;;;;;10.90;8.60;;;21.60;44.30;;;;;;5075326;28;20034;-69
2021/04/21 11:47:42;;;;;;;9.80;7.85;;;21.60;43.50;;;;;;5075131;28;20349;-68
2021/04/21 11:50:27;;;;;;;12.30;8.73;;;21.50;43.70;;;;;;5073299;28;20056;-68
2021/04/21 11:53:14;;;;;;;10.95;7.95;;;21.60;43.90;;;;;;5075963;28;20062;-70
2021/04/21 11:58:49;;;;;;;9.20;7.40;;;21.50;43.30;;;;;;5066659;28;20060;-69
2021/04/21 12:01:20;;;;;;;9.07;6.53;;;21.20;43.10;;;;;;5075745;28;20044;-68
2021/04/21 12:03:48;;;;;;;7.78;6.15;;;21.00;43.60;;;;;;5075075;28;20050;-67
2021/04/21 12:06:18;;;;;;;8.07;6.03;;;21.00;43.60;;;;;;5075086;28;20063;-68
2021/04/21 12:08:46;;;;;;;8.93;5.25;;;21.00;42.50;;;;;;5073713;28;20032;-68
2021/04/21 12:11:12;;;;;;;7.15;5.28;;;21.20;41.60;;;;;;5075248;28;20068;-68
2021/04/21 12:13:43;;;;;;;7.88;5.53;;;21.20;41.40;;;;;;5075476;28;20374;-68
2021/04/21 12:16:18;;;;;;;6.82;5.65;;;21.10;42.00;;;;;;5075139;28;20036;-69
2021/04/21 12:18:50;;;;;;;7.60;5.97;;;21.00;42.50;;;;;;5077899;28;20479;-68
2021/04/21 12:21:16;;;;;;;8.20;6.32;;;21.00;42.60;;;;;;5075815;28;20080;-69
2021/04/21 12:23:46;;;;;;;7.43;5.90;;;21.00;42.50;;;;;;5077230;28;20048;-68
2021/04/21 12:26:25;;;;;;;8.63;6.38;;;21.10;42.20;;;;;;5074767;28;20401;-70
2021/04/21 12:29:00;;;;;;;8.52;6.45;;;21.00;41.60;;;;;;5074305;28;20032;-68
2021/04/21 12:31:27;;;;;;;9.35;6.82;;;21.00;42.40;;;;;;5074810;28;20086;-69
2021/04/21 12:33:55;;;;;;;8.93;6.38;;;21.00;42.40;;;;;;5075574;28;20070;-67
2021/04/21 12:36:30;;;;;;;8.10;5.68;;;20.80;43.40;;;;;;5076534;28;20103;-70
2021/04/21 12:39:05;;;;;;;8.88;6.15;;;20.80;42.90;;;;;;5075429;28;20025;-68
2021/04/21 12:41:31;;;;;;;8.48;5.55;;;20.80;43.00;;;;;;5074839;28;20031;-70
2021/04/21 12:44:40;;;;;;;7.95;6.10;;;20.80;42.10;;;;;;5074374;28;20029;-65
2021/04/21 12:47:10;;;;;;;12.90;5.50;;;20.80;42.30;;;;;;5070514;28;20036;-68
2021/04/21 12:49:39;;;;;;;7.78;5.47;;;20.80;42.80;;;;;;5074882;28;20017;-68
2021/04/21 12:52:08;;;;;;;7.88;5.90;;;20.80;42.70;;;;;;5074916;28;20016;-69
2021/04/21 12:54:41;;;;;;;8.55;5.55;;;20.70;42.60;;;;;;5074659;28;20039;-68
2021/04/21 12:57:09;;;;;;;7.10;5.53;;;20.60;42.60;;;;;;5073925;28;20028;-69
2021/04/21 12:59:58;;;;;;;9.15;5.95;;;20.60;42.70;;;;;;5076988;28;20032;-70
2021/04/21 13:02:46;;;;;;;7.93;6.03;;;20.50;41.80;;;;;;5073728;28;20100;-68
2021/04/21 13:05:13;;;;;;;8.30;5.85;;;20.40;42.10;;;;;;5074104;28;20487;-69
2021/04/21 13:07:39;;;;;;;9.68;5.65;;;20.30;42.40;;;;;;5074006;28;20032;-70
2021/04/21 13:10:13;;;;;;;7.82;5.07;;;20.40;42.40;;;;;;5073760;28;20025;-69
2021/04/21 13:12:39;;;;;;;6.50;5.45;;;20.40;42.30;;;;;;5073757;28;20033;-68
2021/04/21 13:15:20;;;;;;;;;;;20.40;42.30;;;;;;5074319;28;20067;-69
2021/04/21 13:17:54;;;;;;;7.10;4.90;;;20.30;42.40;;;;;;5074488;28;19905;-69